Time;durP1;ratioP1;P1;durP2;ratioP2;P2;SDS_P1;SDS_P2;PMS_P1;PMS_P2;Temp;Humidity;BMP_temperature;BMP_pressure;BME280_temperature;BME280_humidity;BME280_pressure;Samples;Min_cycle;Max_cycle;Signal;HPM_P1;HPM_P2
2023/10/03 00:00:33;;;;;;;52.03;25.80;;;16.80;99.90;;;;;;5155290;27;20050;-21
2023/10/03 00:03:01;;;;;;;59.30;28.63;;;16.80;99.90;;;;;;5147254;27;20057;-21
2023/10/03 00:05:28;;;;;;;58.03;27.30;;;16.80;99.90;;;;;;5154822;27;20089;-21
2023/10/03 00:07:59;;;;;;;55.63;26.65;;;16.80;99.90;;;;;;5136996;27;20054;-21
2023/10/03 00:10:26;;;;;;;59.40;25.95;;;16.80;99.90;;;;;;5135288;27;20042;-21
2023/10/03 00:12:52;;;;;;;55.22;26.70;;;16.90;99.90;;;;;;5136925;27;20118;-21
2023/10/03 00:15:21;;;;;;;54.95;28.35;;;16.90;99.90;;;;;;5154764;27;20054;-21
2023/10/03 00:17:47;;;;;;;50.63;25.98;;;16.90;99.90;;;;;;5154917;27;20049;-21
2023/10/03 00:20:16;;;;;;;60.00;27.90;;;16.90;99.90;;;;;;5155588;27;20051;-21
2023/10/03 00:22:45;;;;;;;54.22;26.50;;;17.00;99.90;;;;;;5136394;27;20046;-22
2023/10/03 00:25:18;;;;;;;53.47;26.73;;;17.00;99.90;;;;;;5142909;27;20050;-21
2023/10/03 00:27:53;;;;;;;54.33;26.40;;;17.00;99.90;;;;;;5156904;27;20095;-22
2023/10/03 00:30:20;;;;;;;53.58;26.48;;;16.90;99.90;;;;;;5156455;27;20039;-22
2023/10/03 00:32:49;;;;;;;52.28;25.05;;;17.00;99.90;;;;;;5155909;27;20053;-22
2023/10/03 00:35:16;;;;;;;52.00;25.88;;;17.00;99.90;;;;;;5156438;27;20047;-21
2023/10/03 00:37:46;;;;;;;54.40;26.08;;;17.00;99.90;;;;;;5154996;27;20087;-22
2023/10/03 00:42:54;;;;;;;52.38;25.50;;;16.90;99.90;;;;;;5157001;27;20117;-21
2023/10/03 00:45:21;;;;;;;47.90;24.73;;;16.90;99.90;;;;;;5137763;27;20042;-21
2023/10/03 00:47:51;;;;;;;53.58;25.33;;;16.90;99.90;;;;;;5154019;27;20058;-21
2023/10/03 00:50:20;;;;;;;47.33;23.80;;;17.00;99.90;;;;;;5156113;27;20082;-21
2023/10/03 00:52:56;;;;;;;47.88;24.13;;;17.00;99.90;;;;;;5151545;27;20047;-22
2023/10/03 00:55:45;;;;;;;50.30;24.75;;;16.90;99.90;;;;;;5137039;27;20050;-21
2023/10/03 01:00:38;;;;;;;48.80;24.67;;;16.90;99.90;;;;;;5155945;27;20465;-21
2023/10/03 01:03:06;;;;;;;51.40;23.92;;;16.90;99.90;;;;;;5154985;27;20043;-21
2023/10/03 01:05:33;;;;;;;49.10;24.45;;;17.00;99.90;;;;;;5148723;27;20053;-21
2023/10/03 01:07:59;;;;;;;54.08;26.88;;;16.90;99.90;;;;;;5151910;27;20488;-21
2023/10/03 01:10:25;;;;;;;47.90;23.67;;;16.90;99.90;;;;;;5153226;27;20481;-21
2023/10/03 01:12:54;;;;;;;43.85;23.05;;;16.90;99.90;;;;;;5154300;27;20384;-21
2023/10/03 01:15:23;;;;;;;45.25;24.45;;;16.90;99.90;;;;;;5154196;27;20478;-21
2023/10/03 01:17:53;;;;;;;49.63;24.88;;;16.90;99.90;;;;;;5153983;27;20046;-21
2023/10/03 01:20:28;;;;;;;48.03;24.50;;;16.90;99.90;;;;;;5147632;27;20103;-21
2023/10/03 01:22:55;;;;;;;46.38;23.10;;;16.90;99.90;;;;;;5151041;27;20512;-21
2023/10/03 01:25:21;;;;;;;49.35;23.27;;;16.80;99.90;;;;;;5151732;27;20071;-21
2023/10/03 01:27:47;;;;;;;42.53;21.77;;;16.80;99.90;;;;;;5147146;27;20058;-21
2023/10/03 01:30:13;;;;;;;45.88;23.20;;;16.70;99.90;;;;;;5154422;27;20448;-21
2023/10/03 01:32:55;;;;;;;46.53;23.92;;;16.80;99.90;;;;;;5155505;27;20046;-21
2023/10/03 01:35:22;;;;;;;45.85;23.90;;;16.70;99.90;;;;;;5155506;27;20045;-21
2023/10/03 01:37:51;;;;;;;43.70;21.77;;;16.70;99.90;;;;;;5155584;27;20038;-21
2023/10/03 01:40:17;;;;;;;43.33;21.63;;;16.70;99.90;;;;;;5155420;27;20400;-21
2023/10/03 01:42:47;;;;;;;41.30;21.35;;;16.70;99.90;;;;;;5154196;27;20042;-21
2023/10/03 01:45:19;;;;;;;42.63;22.52;;;16.80;99.90;;;;;;5154349;27;20043;-21
2023/10/03 01:47:47;;;;;;;44.25;21.92;;;16.80;99.90;;;;;;5155307;27;20499;-21
2023/10/03 01:50:14;;;;;;;42.33;20.48;;;16.80;99.90;;;;;;5154747;27;20043;-21
2023/10/03 01:52:41;;;;;;;49.20;22.00;;;16.90;99.90;;;;;;5155301;27;20043;-21
2023/10/03 01:55:12;;;;;;;43.33;22.73;;;16.90;99.90;;;;;;5153550;27;20066;-22
2023/10/03 01:57:39;;;;;;;46.70;22.17;;;16.90;99.90;;;;;;5152856;27;20050;-21
2023/10/03 02:00:18;;;;;;;45.17;22.27;;;16.90;99.90;;;;;;5146403;27;20045;-21
2023/10/03 02:02:44;;;;;;;43.17;22.08;;;16.90;99.90;;;;;;5155573;27;20396;-21
2023/10/03 02:05:11;;;;;;;42.65;20.65;;;16.80;99.90;;;;;;5155228;27;20039;-22
2023/10/03 02:07:37;;;;;;;40.70;21.60;;;16.80;99.90;;;;;;5152579;27;20065;-21
2023/10/03 02:10:06;;;;;;;41.92;20.25;;;16.80;99.90;;;;;;5145137;27;20484;-21
2023/10/03 02:12:32;;;;;;;42.20;20.45;;;16.80;99.90;;;;;;5152786;27;20576;-21
2023/10/03 02:15:00;;;;;;;45.08;21.02;;;16.70;99.90;;;;;;5122772;28;20043;-22
2023/10/03 02:17:28;;;;;;;40.72;20.35;;;16.70;99.90;;;;;;5134234;27;20050;-20
2023/10/03 02:19:54;;;;;;;44.17;22.08;;;16.60;99.90;;;;;;5145156;27;20115;-20
2023/10/03 02:22:19;;;;;;;41.60;21.02;;;16.60;99.90;;;;;;5142964;27;20074;-22
2023/10/03 02:24:45;;;;;;;39.72;19.98;;;16.50;99.90;;;;;;5154944;27;20089;-21
2023/10/03 02:27:11;;;;;;;38.55;20.13;;;16.50;99.90;;;;;;5144809;27;20062;-21
2023/10/03 02:29:38;;;;;;;41.10;19.88;;;16.50;99.90;;;;;;5137368;27;20043;-21
2023/10/03 02:32:07;;;;;;;37.90;19.67;;;16.40;99.90;;;;;;5138459;27;20396;-21
2023/10/03 02:34:33;;;;;;;39.40;19.33;;;16.40;99.90;;;;;;5139541;27;20049;-21
2023/10/03 02:37:00;;;;;;;42.30;20.42;;;16.40;99.90;;;;;;5140986;27;20134;-21
2023/10/03 02:39:35;;;;;;;42.60;20.05;;;16.50;99.90;;;;;;5158717;27;20046;-21
2023/10/03 02:42:01;;;;;;;40.38;20.38;;;16.60;99.90;;;;;;5158466;27;20043;-21
2023/10/03 02:44:27;;;;;;;35.90;18.40;;;16.70;99.90;;;;;;5158953;27;20043;-21
2023/10/03 02:46:53;;;;;;;40.50;19.88;;;16.80;99.90;;;;;;5158614;27;20507;-21
2023/10/03 02:49:19;;;;;;;38.38;18.02;;;16.80;99.90;;;;;;5157282;27;20043;-21
2023/10/03 02:51:45;;;;;;;41.33;19.30;;;16.90;99.90;;;;;;5158287;27;20078;-21
2023/10/03 02:54:10;;;;;;;35.90;18.17;;;16.90;99.90;;;;;;5157563;27;20046;-21
2023/10/03 02:56:36;;;;;;;35.58;17.20;;;17.00;99.90;;;;;;5158006;27;20125;-21
2023/10/03 02:59:03;;;;;;;39.25;18.27;;;17.00;99.90;;;;;;5157167;27;20050;-21
2023/10/03 03:01:31;;;;;;;38.75;18.73;;;17.00;99.90;;;;;;5157641;27;20043;-21
2023/10/03 03:03:57;;;;;;;35.70;16.92;;;17.10;99.90;;;;;;5158296;27;20051;-21
2023/10/03 03:06:23;;;;;;;34.78;16.85;;;17.10;99.90;;;;;;5158187;27;20471;-21
2023/10/03 03:08:52;;;;;;;37.55;17.60;;;17.20;99.90;;;;;;5157481;27;20042;-21
2023/10/03 03:11:18;;;;;;;36.33;17.75;;;17.20;99.90;;;;;;5156563;27;20035;-22
2023/10/03 03:13:43;;;;;;;35.40;15.18;;;17.20;99.90;;;;;;5158345;27;20103;-21
2023/10/03 03:16:14;;;;;;;35.85;16.92;;;17.30;99.90;;;;;;5157067;27;20484;-21
2023/10/03 03:18:41;;;;;;;35.67;16.58;;;17.30;99.90;;;;;;5139113;27;20055;-21
2023/10/03 03:21:13;;;;;;;36.90;17.60;;;17.30;99.90;;;;;;5155908;27;20492;-21
2023/10/03 03:23:43;;;;;;;34.22;17.23;;;17.30;99.90;;;;;;5147758;27;20058;-21
2023/10/03 03:26:20;;;;;;;34.63;16.67;;;17.30;99.90;;;;;;5156503;27;20050;-22
2023/10/03 03:28:49;;;;;;;34.88;15.57;;;17.40;99.90;;;;;;5142439;27;20080;-22
2023/10/03 03:31:22;;;;;;;35.75;17.35;;;17.40;99.90;;;;;;5138932;27;20043;-21
2023/10/03 03:33:58;;;;;;;34.33;16.55;;;17.40;99.90;;;;;;5148806;27;20489;-21
2023/10/03 03:36:30;;;;;;;29.75;14.85;;;17.50;99.90;;;;;;5155852;27;20054;-22
2023/10/03 03:38:58;;;;;;;41.10;17.05;;;17.50;99.90;;;;;;5147296;27;20537;-21
2023/10/03 03:41:24;;;;;;;33.45;15.68;;;17.60;99.90;;;;;;5155265;27;20047;-22
2023/10/03 03:43:50;;;;;;;33.78;15.60;;;17.60;99.90;;;;;;5157214;27;20046;-21
2023/10/03 03:46:19;;;;;;;29.23;14.85;;;17.70;99.90;;;;;;5157500;27;20051;-21
2023/10/03 03:48:46;;;;;;;37.05;16.48;;;17.70;99.90;;;;;;5157426;27;20045;-21
2023/10/03 03:51:14;;;;;;;32.47;15.70;;;17.80;99.90;;;;;;5156163;27;20047;-21
2023/10/03 03:53:43;;;;;;;31.10;14.70;;;17.80;99.90;;;;;;5157365;27;20387;-21
2023/10/03 03:56:11;;;;;;;41.15;16.17;;;18.00;99.90;;;;;;5157144;27;20043;-22
2023/10/03 03:58:40;;;;;;;35.28;15.50;;;18.00;99.90;;;;;;5157258;27;20050;-21
2023/10/03 04:01:14;;;;;;;33.13;16.40;;;18.00;99.90;;;;;;5156977;27;20039;-22
2023/10/03 04:03:42;;;;;;;30.55;13.95;;;17.90;99.90;;;;;;5157059;27;20100;-22
2023/10/03 04:06:08;;;;;;;36.35;16.15;;;17.90;99.90;;;;;;5157083;27;20098;-22
2023/10/03 04:08:35;;;;;;;30.95;15.75;;;18.00;99.90;;;;;;5138794;27;20046;-22
2023/10/03 04:11:02;;;;;;;30.33;13.77;;;18.10;99.90;;;;;;5156881;27;20042;-22
2023/10/03 04:13:30;;;;;;;33.55;15.82;;;18.10;99.90;;;;;;5134523;27;20078;-22
2023/10/03 04:16:02;;;;;;;33.00;13.93;;;18.20;99.90;;;;;;5154508;27;20051;-22
2023/10/03 04:18:28;;;;;;;42.65;16.25;;;18.20;99.90;;;;;;5143553;27;20047;-21
2023/10/03 04:20:54;;;;;;;31.02;14.43;;;18.20;99.90;;;;;;5149474;27;20038;-21
2023/10/03 04:23:20;;;;;;;36.10;16.95;;;18.10;99.90;;;;;;5145691;27;20042;-21
2023/10/03 04:25:46;;;;;;;31.83;15.60;;;18.00;99.90;;;;;;5147843;27;20589;-22
2023/10/03 04:28:17;;;;;;;36.70;16.55;;;18.00;99.90;;;;;;5156097;27;20057;-21
2023/10/03 04:30:43;;;;;;;31.00;14.52;;;18.00;99.90;;;;;;5156560;27;20042;-22
2023/10/03 04:33:09;;;;;;;32.72;13.90;;;18.00;99.90;;;;;;5155248;27;20038;-22
2023/10/03 04:35:35;;;;;;;30.98;14.48;;;18.00;99.90;;;;;;5145609;27;20175;-21
2023/10/03 04:38:04;;;;;;;31.02;14.18;;;18.00;99.90;;;;;;5154565;27;20043;-22
2023/10/03 04:40:36;;;;;;;31.27;14.40;;;18.10;99.90;;;;;;5155712;27;20046;-21
2023/10/03 04:43:07;;;;;;;35.25;14.60;;;18.10;99.90;;;;;;5154726;27;20051;-20
2023/10/03 04:45:35;;;;;;;34.35;15.25;;;18.20;99.90;;;;;;5138490;27;20050;-20
2023/10/03 04:48:02;;;;;;;32.25;15.38;;;18.30;99.90;;;;;;5156796;27;20047;-22
2023/10/03 04:50:28;;;;;;;31.52;15.10;;;18.30;99.90;;;;;;5155466;27;20049;-22
2023/10/03 04:52:54;;;;;;;27.85;14.73;;;18.30;99.90;;;;;;5151099;27;20118;-21
2023/10/03 04:55:23;;;;;;;31.23;14.57;;;18.40;99.90;;;;;;5152881;27;20388;-21
2023/10/03 04:57:53;;;;;;;35.45;15.65;;;18.40;99.90;;;;;;5135210;27;20480;-22
2023/10/03 05:00:21;;;;;;;34.90;15.40;;;18.40;99.90;;;;;;5152808;27;20080;-22
2023/10/03 05:02:52;;;;;;;32.03;15.27;;;18.50;99.90;;;;;;5156813;27;20047;-22
2023/10/03 05:05:26;;;;;;;28.50;14.48;;;18.50;99.90;;;;;;5155270;27;20054;-22
2023/10/03 05:07:53;;;;;;;30.17;13.38;;;18.60;99.90;;;;;;5153811;27;20050;-22
2023/10/03 05:10:20;;;;;;;35.28;14.52;;;18.70;99.90;;;;;;5156052;27;20039;-22
2023/10/03 05:12:48;;;;;;;31.85;13.68;;;18.70;99.90;;;;;;5152836;27;21486;-21
2023/10/03 05:15:15;;;;;;;28.98;14.50;;;18.80;99.90;;;;;;5153730;27;20046;-22
2023/10/03 05:17:44;;;;;;;35.10;14.85;;;18.90;99.90;;;;;;5145544;27;20079;-21
2023/10/03 05:20:14;;;;;;;43.67;17.33;;;19.00;99.90;;;;;;5154613;27;20082;-21
2023/10/03 05:22:41;;;;;;;34.95;13.93;;;19.00;99.90;;;;;;5154903;27;20042;-22
2023/10/03 05:25:11;;;;;;;38.85;15.52;;;19.00;99.90;;;;;;5145852;27;20034;-22
2023/10/03 05:27:41;;;;;;;34.45;17.17;;;19.00;99.90;;;;;;5149220;27;20055;-21
2023/10/03 05:30:08;;;;;;;38.22;15.88;;;18.90;99.90;;;;;;5151741;27;20111;-21
2023/10/03 05:32:35;;;;;;;38.63;17.05;;;18.90;99.90;;;;;;5154749;27;20050;-21
2023/10/03 05:35:04;;;;;;;40.63;16.98;;;18.80;99.90;;;;;;5154743;27;20038;-21
2023/10/03 05:37:33;;;;;;;43.10;18.77;;;18.70;99.90;;;;;;5152239;27;20117;-21
2023/10/03 05:39:59;;;;;;;36.38;17.05;;;18.80;99.90;;;;;;5146303;27;20389;-21
2023/10/03 05:42:26;;;;;;;41.83;17.92;;;18.80;99.90;;;;;;5150374;27;20460;-21
2023/10/03 05:44:53;;;;;;;35.65;16.88;;;18.80;99.90;;;;;;5155293;27;20584;-22
2023/10/03 05:47:19;;;;;;;36.80;16.48;;;18.90;99.90;;;;;;5155974;27;20050;-21
2023/10/03 05:49:45;;;;;;;38.72;17.88;;;18.90;99.90;;;;;;5154978;27;20457;-21
2023/10/03 05:52:11;;;;;;;45.22;18.98;;;18.90;99.90;;;;;;5155391;27;20484;-21
2023/10/03 05:54:37;;;;;;;39.55;16.73;;;18.80;99.90;;;;;;5153833;27;20507;-21
2023/10/03 05:57:03;;;;;;;36.72;16.05;;;18.90;99.90;;;;;;5153625;27;20055;-21
2023/10/03 05:59:29;;;;;;;30.27;14.07;;;18.90;99.90;;;;;;5155386;27;20133;-21
2023/10/03 06:01:58;;;;;;;39.22;15.32;;;18.90;99.90;;;;;;5157710;27;20047;-21
2023/10/03 06:04:24;;;;;;;30.48;13.05;;;18.90;99.90;;;;;;5160014;27;20039;-21
2023/10/03 06:06:50;;;;;;;32.40;14.23;;;18.90;99.90;;;;;;5159414;27;20052;-21
2023/10/03 06:09:16;;;;;;;27.02;12.32;;;18.90;99.90;;;;;;5159315;27;20103;-21
2023/10/03 06:11:42;;;;;;;29.75;12.40;;;18.90;99.90;;;;;;5158607;27;20118;-21
2023/10/03 06:14:08;;;;;;;30.50;14.20;;;18.80;99.90;;;;;;5158082;27;20046;-21
2023/10/03 06:16:36;;;;;;;29.55;13.38;;;18.80;99.90;;;;;;5158241;27;20043;-21
2023/10/03 06:19:03;;;;;;;27.92;13.13;;;18.80;99.90;;;;;;5158515;27;20047;-21
2023/10/03 06:21:30;;;;;;;22.55;10.70;;;18.80;99.90;;;;;;5148260;27;20046;-21
2023/10/03 06:23:55;;;;;;;24.80;12.90;;;18.70;99.90;;;;;;5158757;27;20047;-22
2023/10/03 06:26:21;;;;;;;22.77;10.88;;;18.70;99.90;;;;;;5148163;27;20051;-21
2023/10/03 06:28:50;;;;;;;25.67;12.18;;;18.70;99.90;;;;;;5156879;27;20042;-21
2023/10/03 06:31:17;;;;;;;25.50;13.00;;;18.60;99.90;;;;;;5139936;27;20441;-22
2023/10/03 06:33:43;;;;;;;25.60;11.98;;;18.70;99.90;;;;;;5150549;27;20442;-22
2023/10/03 06:36:11;;;;;;;23.02;12.80;;;18.60;99.90;;;;;;5158081;27;20047;-21
2023/10/03 06:38:38;;;;;;;19.88;9.25;;;18.60;99.90;;;;;;5158223;27;20119;-21
2023/10/03 06:41:05;;;;;;;19.27;11.00;;;18.50;99.90;;;;;;5156636;27;20488;-21
2023/10/03 06:43:32;;;;;;;20.17;11.80;;;18.50;99.90;;;;;;5148715;27;20081;-22
2023/10/03 06:45:58;;;;;;;23.77;12.70;;;18.50;99.90;;;;;;5157537;27;20078;-22
2023/10/03 06:48:24;;;;;;;22.17;11.95;;;18.40;99.90;;;;;;5136312;27;20051;-21
2023/10/03 06:50:53;;;;;;;24.38;12.65;;;18.50;99.90;;;;;;5136209;27;20039;-22
2023/10/03 06:53:19;;;;;;;28.17;13.25;;;18.50;99.90;;;;;;5142410;27;20511;-21
2023/10/03 06:55:45;;;;;;;18.85;10.27;;;18.50;99.90;;;;;;5156032;27;20484;-21
2023/10/03 06:58:13;;;;;;;18.30;8.27;;;18.50;99.90;;;;;;5148051;27;20065;-21
2023/10/03 07:00:40;;;;;;;20.33;9.25;;;18.50;99.90;;;;;;5145781;27;20069;-21
2023/10/03 07:03:08;;;;;;;23.08;9.30;;;18.40;99.90;;;;;;5150158;27;20043;-21
2023/10/03 07:05:34;;;;;;;27.77;10.70;;;18.30;99.90;;;;;;5152041;27;20449;-22
2023/10/03 07:08:00;;;;;;;33.58;12.85;;;18.20;99.90;;;;;;5151658;27;20039;-21
2023/10/03 07:10:26;;;;;;;22.33;9.15;;;18.20;99.90;;;;;;5158593;27;20054;-21
2023/10/03 07:12:52;;;;;;;31.73;9.63;;;18.00;99.90;;;;;;5157449;27;20042;-21
2023/10/03 07:15:18;;;;;;;26.83;8.55;;;17.90;99.90;;;;;;5158063;27;20042;-22
2023/10/03 07:17:44;;;;;;;23.60;8.00;;;17.80;99.90;;;;;;5157969;27;20045;-21
2023/10/03 07:20:12;;;;;;;18.38;5.88;;;17.60;99.90;;;;;;5157048;27;20067;-21
2023/10/03 07:22:39;;;;;;;20.52;6.68;;;17.20;99.90;;;;;;5157929;27;20042;-21
2023/10/03 07:25:09;;;;;;;25.80;7.28;;;17.10;99.90;;;;;;5157697;27;20130;-21
2023/10/03 07:27:41;;;;;;;19.23;7.38;;;17.00;99.90;;;;;;5157511;27;20062;-21
2023/10/03 07:30:07;;;;;;;21.13;5.75;;;17.00;99.90;;;;;;5157820;27;20043;-21
2023/10/03 07:32:34;;;;;;;23.45;7.00;;;17.00;99.90;;;;;;5139985;27;20388;-21
2023/10/03 07:35:00;;;;;;;20.48;5.35;;;17.00;99.90;;;;;;5137899;27;20497;-21
2023/10/03 07:37:26;;;;;;;23.55;6.13;;;16.90;99.90;;;;;;5135786;27;20079;-22
2023/10/03 07:39:52;;;;;;;16.92;4.03;;;16.90;99.90;;;;;;5136853;27;20501;-22
2023/10/03 07:42:19;;;;;;;13.05;3.90;;;16.80;99.90;;;;;;5136889;27;20047;-22
2023/10/03 07:44:44;;;;;;;15.23;3.65;;;16.70;99.90;;;;;;5136901;27;20047;-22
2023/10/03 07:47:12;;;;;;;13.23;3.45;;;16.70;99.90;;;;;;5136822;27;20126;-22
2023/10/03 07:49:41;;;;;;;10.07;3.05;;;16.60;99.90;;;;;;5136624;27;20082;-22
2023/10/03 07:52:07;;;;;;;10.77;2.47;;;16.40;99.90;;;;;;5136884;27;20051;-21
2023/10/03 07:54:36;;;;;;;16.30;3.80;;;16.30;99.90;;;;;;5144417;27;20111;-21
2023/10/03 07:57:05;;;;;;;15.00;3.33;;;16.20;99.90;;;;;;5157816;27;20129;-22
2023/10/03 07:59:32;;;;;;;17.88;4.18;;;16.20;99.90;;;;;;5156502;27;20076;-21
2023/10/03 08:02:04;;;;;;;13.38;3.17;;;16.20;99.90;;;;;;5144526;27;20073;-22
2023/10/03 08:04:34;;;;;;;10.30;1.95;;;16.20;99.90;;;;;;5136771;27;20103;-22
2023/10/03 08:06:59;;;;;;;11.40;1.90;;;16.10;99.90;;;;;;5135151;27;20086;-22
2023/10/03 08:09:25;;;;;;;11.25;1.98;;;16.00;99.90;;;;;;5136151;27;20096;-22
2023/10/03 08:11:52;;;;;;;12.45;2.78;;;16.00;99.90;;;;;;5138107;27;20038;-22
2023/10/03 08:14:18;;;;;;;15.82;2.63;;;15.90;99.90;;;;;;5156965;27;20066;-22
2023/10/03 08:16:45;;;;;;;12.38;1.65;;;15.90;99.90;;;;;;5156823;27;20050;-22
2023/10/03 08:19:24;;;;;;;12.90;2.90;;;15.90;99.90;;;;;;5156868;27;20373;-22
2023/10/03 08:21:54;;;;;;;11.95;1.83;;;15.90;99.90;;;;;;5156458;27;20125;-22
2023/10/03 08:24:28;;;;;;;7.05;1.40;;;15.90;99.90;;;;;;5135577;27;20039;-22
2023/10/03 08:27:01;;;;;;;12.23;1.58;;;15.90;99.90;;;;;;5135556;27;20409;-22
2023/10/03 08:29:27;;;;;;;;;;;15.90;99.90;;;;;;5136560;27;20128;-22
2023/10/03 08:31:57;;;;;;;10.45;2.25;;;15.90;99.90;;;;;;5139234;27;19959;-20
2023/10/03 08:34:30;;;;;;;11.68;1.63;;;16.00;99.90;;;;;;5135819;27;20046;-22
2023/10/03 08:37:00;;;;;;;13.82;1.25;;;16.10;99.90;;;;;;5135834;27;20039;-22
2023/10/03 08:39:27;;;;;;;6.53;1.40;;;16.10;99.90;;;;;;5135686;27;20488;-21
2023/10/03 08:42:12;;;;;;;6.32;0.68;;;16.10;99.90;;;;;;5136648;27;20055;-21
2023/10/03 08:44:51;;;;;;;10.10;1.30;;;16.00;99.90;;;;;;5136580;27;20046;-20
2023/10/03 08:47:29;;;;;;;11.85;2.03;;;15.50;99.90;;;;;;5112299;27;20422;-20
2023/10/03 08:50:13;;;;;;;10.63;1.52;;;15.10;99.90;;;;;;5112124;28;20446;-19
2023/10/03 08:52:48;;;;;;;5.47;0.70;;;14.70;99.90;;;;;;5110456;28;20130;-21
2023/10/03 08:55:22;;;;;;;7.30;0.70;;;14.50;99.90;;;;;;5103102;28;20075;-20
2023/10/03 08:57:49;;;;;;;8.90;1.20;;;14.00;99.90;;;;;;5097352;28;20093;-20
2023/10/03 09:00:25;;;;;;;8.10;0.90;;;14.40;99.90;;;;;;5111402;28;20428;-20
2023/10/03 09:02:59;;;;;;;7.38;0.80;;;14.10;99.90;;;;;;5094265;28;20059;-20
2023/10/03 09:05:26;;;;;;;7.50;1.10;;;14.40;99.90;;;;;;5111217;28;20051;-20
2023/10/03 09:07:58;;;;;;;8.90;1.00;;;14.30;99.90;;;;;;5107905;28;20131;-20
2023/10/03 09:10:26;;;;;;;7.13;0.98;;;14.50;99.90;;;;;;5111157;28;20044;-19
2023/10/03 09:13:04;;;;;;;4.78;0.80;;;14.40;99.90;;;;;;5111153;28;20105;-20
2023/10/03 09:15:37;;;;;;;4.75;0.50;;;14.40;99.90;;;;;;5111983;28;20078;-19
2023/10/03 09:18:15;;;;;;;5.45;0.70;;;14.30;99.90;;;;;;5109360;28;20040;-19
2023/10/03 09:20:42;;;;;;;9.00;0.80;;;14.30;99.90;;;;;;5090403;28;20097;-19
2023/10/03 09:23:09;;;;;;;4.10;0.50;;;14.20;99.90;;;;;;5090606;28;20048;-19
2023/10/03 09:25:39;;;;;;;8.10;0.90;;;14.40;99.90;;;;;;5090444;28;20041;-19
2023/10/03 09:28:06;;;;;;;10.52;1.02;;;14.40;99.90;;;;;;5090426;28;20059;-19
2023/10/03 09:30:38;;;;;;;5.00;0.80;;;14.40;99.90;;;;;;5107800;28;20138;-20
2023/10/03 09:33:17;;;;;;;5.05;0.60;;;14.20;99.90;;;;;;5110148;28;20048;-21
2023/10/03 09:36:02;;;;;;;4.40;0.80;;;14.30;99.90;;;;;;5111342;28;20051;-20
2023/10/03 09:38:45;;;;;;;7.35;0.80;;;14.20;99.90;;;;;;5110634;28;20048;-21
2023/10/03 09:41:37;;;;;;;4.88;1.20;;;14.40;99.90;;;;;;5095006;28;20551;-21
2023/10/03 09:43:58;;;;;;;5.85;0.60;;;14.50;99.90;;;;;;5110204;28;20056;-21
2023/10/03 09:46:38;;;;;;;2.13;0.20;;;14.40;99.90;;;;;;5097618;28;20056;-21
2023/10/03 09:49:08;;;;;;;2.63;0.10;;;14.10;99.90;;;;;;5089845;28;20545;-20
2023/10/03 09:51:46;;;;;;;5.00;0.40;;;14.00;99.90;;;;;;5089042;28;20454;-20
2023/10/03 09:54:35;;;;;;;3.92;0.73;;;13.90;99.90;;;;;;5090049;28;20048;-20
2023/10/03 09:57:01;;;;;;;6.35;0.57;;;13.90;99.90;;;;;;5101534;28;20040;-20
2023/10/03 09:59:32;;;;;;;2.55;0.30;;;14.10;99.90;;;;;;5091300;28;20094;-20
2023/10/03 10:01:59;;;;;;;4.97;0.90;;;14.20;99.90;;;;;;5085486;28;20048;-20
2023/10/03 10:04:30;;;;;;;2.03;0.40;;;14.20;99.90;;;;;;5075342;28;20044;-21
2023/10/03 10:07:34;;;;;;;9.63;1.20;;;14.30;99.90;;;;;;5076067;28;20530;-20
2023/10/03 10:10:07;;;;;;;6.65;0.90;;;14.30;99.90;;;;;;5069160;28;20518;-21
2023/10/03 10:12:37;;;;;;;;;;;14.30;99.90;;;;;;5076614;28;20056;-21
2023/10/03 10:17:55;;;;;;;3.60;1.40;;;14.30;99.90;;;;;;5076104;28;20486;-21
2023/10/03 10:20:37;;;;;;;9.30;1.35;;;14.20;99.90;;;;;;5076097;28;20048;-21
2023/10/03 10:23:04;;;;;;;4.88;1.45;;;14.20;99.90;;;;;;5076029;28;20506;-21
2023/10/03 10:25:41;;;;;;;7.93;1.77;;;14.30;99.90;;;;;;5076133;28;20049;-21
2023/10/03 10:28:09;;;;;;;6.43;1.50;;;14.40;99.90;;;;;;5075259;28;20055;-21
2023/10/03 10:30:37;;;;;;;8.82;1.58;;;14.50;99.90;;;;;;5075550;28;20502;-21
2023/10/03 10:33:18;;;;;;;10.95;1.63;;;14.70;99.90;;;;;;5076335;28;20051;-21
2023/10/03 10:35:55;;;;;;;7.40;1.30;;;14.90;99.90;;;;;;5075774;28;20098;-22
2023/10/03 10:38:49;;;;;;;6.18;1.15;;;14.90;99.90;;;;;;5075688;28;20048;-22
2023/10/03 10:41:17;;;;;;;6.30;1.08;;;14.80;99.90;;;;;;5074019;28;20092;-22
2023/10/03 10:44:09;;;;;;;4.60;0.88;;;14.80;99.90;;;;;;5075660;28;20059;-21
2023/10/03 10:46:35;;;;;;;6.00;1.30;;;14.70;99.90;;;;;;5075673;28;20106;-22
2023/10/03 10:49:06;;;;;;;6.40;1.67;;;14.70;99.90;;;;;;5075481;28;20483;-21
2023/10/03 10:51:34;;;;;;;7.47;1.65;;;14.70;99.90;;;;;;5075468;28;20543;-21
2023/10/03 10:54:04;;;;;;;9.45;2.47;;;14.50;99.90;;;;;;5075256;28;20416;-21
2023/10/03 10:56:32;;;;;;;7.57;2.38;;;14.00;99.90;;;;;;5074336;28;20049;-21
2023/10/03 10:59:07;;;;;;;7.03;2.42;;;13.70;99.90;;;;;;5058737;28;20048;-22
2023/10/03 11:01:40;;;;;;;10.13;2.92;;;13.60;99.90;;;;;;5075596;28;20119;-21
2023/10/03 11:04:06;;;;;;;11.57;3.10;;;13.60;99.90;;;;;;5075269;28;20490;-22
2023/10/03 11:06:32;;;;;;;8.63;3.13;;;13.70;99.90;;;;;;5075879;28;20036;-22
2023/10/03 11:08:58;;;;;;;9.23;2.83;;;13.90;99.90;;;;;;5074042;28;20387;-21
2023/10/03 11:11:35;;;;;;;7.10;2.35;;;14.00;99.90;;;;;;5075829;28;20095;-22
2023/10/03 11:14:01;;;;;;;6.43;2.22;;;14.10;99.90;;;;;;5075033;28;20127;-22
2023/10/03 11:16:27;;;;;;;9.93;2.38;;;14.20;99.90;;;;;;5075207;28;20076;-22
2023/10/03 11:18:56;;;;;;;7.68;2.22;;;14.30;99.90;;;;;;5074876;28;20048;-22
2023/10/03 11:21:23;;;;;;;7.32;1.80;;;14.30;99.90;;;;;;5074889;28;20393;-22
2023/10/03 11:24:09;;;;;;;7.40;2.22;;;14.30;99.90;;;;;;5074811;28;20051;-22
2023/10/03 11:26:47;;;;;;;12.52;2.88;;;14.40;99.90;;;;;;5074764;28;20084;-22
2023/10/03 11:29:15;;;;;;;8.63;2.53;;;14.50;99.90;;;;;;5074735;28;20058;-22
2023/10/03 11:31:42;;;;;;;12.45;2.25;;;14.60;99.90;;;;;;5073682;28;20509;-22
2023/10/03 11:34:08;;;;;;;7.30;1.60;;;14.60;99.90;;;;;;5073638;28;20139;-22
2023/10/03 11:36:45;;;;;;;6.55;1.75;;;14.80;99.90;;;;;;5074496;28;20041;-22
2023/10/03 11:39:18;;;;;;;10.63;2.55;;;14.80;99.90;;;;;;5075054;28;20048;-22
2023/10/03 11:41:44;;;;;;;6.95;1.92;;;14.90;99.90;;;;;;5073860;28;20359;-22
2023/10/03 11:44:20;;;;;;;7.90;2.67;;;14.90;99.90;;;;;;5073221;28;20120;-22
2023/10/03 11:46:47;;;;;;;9.52;2.35;;;14.90;99.90;;;;;;5072872;28;20061;-21
2023/10/03 11:49:15;;;;;;;6.03;2.10;;;15.00;99.90;;;;;;5074360;28;20494;-21
2023/10/03 11:51:44;;;;;;;5.50;1.88;;;15.00;99.90;;;;;;5074070;28;20048;-21
2023/10/03 11:54:15;;;;;;;8.90;2.13;;;15.00;99.90;;;;;;5074227;28;20050;-21
2023/10/03 11:56:42;;;;;;;5.68;1.90;;;14.90;99.90;;;;;;5074258;28;20094;-22
2023/10/03 11:59:08;;;;;;;4.70;1.70;;;14.70;99.90;;;;;;5073502;28;20051;-21
2023/10/03 12:01:35;;;;;;;5.22;1.52;;;14.50;99.90;;;;;;5074136;28;20044;-21
2023/10/03 12:04:02;;;;;;;10.45;2.50;;;14.30;99.90;;;;;;5072826;28;20071;-21
2023/10/03 12:06:27;;;;;;;8.63;2.55;;;14.20;99.90;;;;;;5073936;28;20101;-21
2023/10/03 12:08:54;;;;;;;9.00;1.83;;;14.00;99.90;;;;;;5073979;28;20119;-21
2023/10/03 12:11:20;;;;;;;9.57;1.95;;;14.00;99.90;;;;;;5073293;28;20048;-21
2023/10/03 12:13:46;;;;;;;9.52;2.10;;;13.90;99.90;;;;;;5072731;28;20040;-21
2023/10/03 12:16:12;;;;;;;7.43;1.85;;;13.90;99.90;;;;;;5073798;28;20097;-21
2023/10/03 12:18:38;;;;;;;6.82;1.58;;;14.00;99.90;;;;;;5074091;28;20048;-21
2023/10/03 12:21:04;;;;;;;8.25;2.30;;;14.10;99.90;;;;;;5073523;28;20052;-21
2023/10/03 12:23:30;;;;;;;9.15;1.80;;;14.20;99.90;;;;;;5072764;28;20051;-21
2023/10/03 12:25:57;;;;;;;8.57;1.45;;;14.40;99.90;;;;;;5074195;28;20044;-21
2023/10/03 12:28:23;;;;;;;7.90;1.60;;;14.70;99.90;;;;;;5074024;28;20131;-22
2023/10/03 12:30:53;;;;;;;5.18;1.50;;;14.90;99.90;;;;;;5073695;28;20127;-22
2023/10/03 12:33:19;;;;;;;8.68;2.17;;;15.10;99.90;;;;;;5073683;28;20044;-22
2023/10/03 12:35:46;;;;;;;7.75;0.80;;;15.30;99.90;;;;;;5074474;28;20049;-22
2023/10/03 12:38:12;;;;;;;5.35;1.45;;;15.40;99.90;;;;;;5073889;28;20052;-22
2023/10/03 12:40:38;;;;;;;8.88;1.85;;;15.30;99.90;;;;;;5074190;28;20363;-22
2023/10/03 12:43:03;;;;;;;5.05;1.33;;;15.20;99.90;;;;;;5072312;28;20101;-22
2023/10/03 12:45:29;;;;;;;8.98;1.52;;;15.00;99.90;;;;;;5073221;28;20140;-22
2023/10/03 12:47:57;;;;;;;7.07;1.42;;;14.90;99.90;;;;;;5073519;28;20099;-22
2023/10/03 12:50:25;;;;;;;8.45;1.60;;;14.90;99.90;;;;;;5074327;28;20044;-22
2023/10/03 12:52:59;;;;;;;4.97;1.38;;;14.90;99.90;;;;;;5074092;28;20132;-22